createdAt,value
2023-05-11T00:02:26.187Z,12.47
2023-05-11T00:04:54.408Z,9.00
2023-05-11T00:07:21.461Z,11.13
2023-05-11T00:09:48.525Z,9.57
2023-05-11T00:12:15.541Z,11.37
2023-05-11T00:14:42.742Z,13.77
2023-05-11T00:17:10.897Z,10.13
2023-05-11T00:19:38.258Z,7.80
2023-05-11T00:22:05.240Z,11.67
2023-05-11T00:24:32.374Z,14.23
2023-05-11T00:26:59.319Z,12.03
2023-05-11T00:29:26.466Z,9.57
2023-05-11T00:31:53.429Z,10.53
2023-05-11T00:34:20.655Z,8.23
2023-05-11T00:36:47.814Z,12.93
2023-05-11T00:39:15.094Z,14.20
2023-05-11T00:41:41.922Z,14.13
2023-05-11T00:44:09.248Z,12.80
2023-05-11T00:46:36.555Z,10.43
2023-05-11T00:49:03.827Z,13.33
2023-05-11T00:51:32.881Z,12.23
2023-05-11T00:54:01.133Z,11.73
2023-05-11T00:56:28.364Z,15.43
2023-05-11T00:58:55.609Z,12.20
2023-05-11T01:01:22.712Z,14.10
2023-05-11T01:03:50.201Z,18.07
2023-05-11T01:06:32.414Z,12.23
2023-05-11T01:09:06.662Z,14.30
2023-05-11T01:11:48.341Z,14.07
2023-05-11T01:14:23.361Z,11.73
2023-05-11T01:16:56.008Z,10.53
2023-05-11T01:19:32.330Z,14.90
2023-05-11T01:22:00.105Z,12.07
2023-05-11T01:24:42.419Z,12.53
2023-05-11T01:27:18.225Z,13.70
2023-05-11T01:30:04.832Z,15.33
2023-05-11T01:32:35.846Z,12.20
2023-05-11T01:35:12.350Z,14.60
2023-05-11T01:37:45.851Z,11.87
2023-05-11T01:40:17.287Z,14.97
2023-05-11T01:43:01.415Z,11.73
2023-05-11T01:45:31.767Z,13.20
2023-05-11T01:48:03.057Z,10.17
2023-05-11T01:50:32.781Z,14.60
2023-05-11T01:53:02.961Z,17.03
2023-05-11T01:55:32.312Z,15.60
2023-05-11T01:58:00.927Z,14.20
2023-05-11T02:00:28.567Z,13.05
2023-05-11T02:02:57.809Z,14.87
2023-05-11T02:05:25.295Z,11.23
2023-05-11T02:07:54.460Z,11.70
2023-05-11T02:10:25.797Z,13.20
2023-05-11T02:12:54.539Z,15.70
2023-05-11T02:15:22.823Z,13.40
2023-05-11T02:17:51.374Z,13.33
2023-05-11T02:20:20.318Z,13.27
2023-05-11T02:22:49.122Z,13.75
2023-05-11T02:25:17.246Z,10.68
2023-05-11T02:27:44.298Z,14.07
2023-05-11T02:30:12.953Z,14.73
2023-05-11T02:32:47.718Z,12.75
2023-05-11T02:35:18.707Z,11.50
2023-05-11T02:37:48.357Z,18.17
2023-05-11T02:43:13.255Z,14.83
2023-05-11T02:48:14.095Z,13.03
2023-05-11T02:50:43.006Z,14.20
2023-05-11T02:53:16.500Z,9.75
2023-05-11T02:55:44.252Z,14.00
2023-05-11T02:58:11.654Z,11.07
2023-05-11T03:00:39.772Z,15.93
2023-05-11T03:03:06.966Z,11.07
2023-05-11T03:05:34.243Z,12.77
2023-05-11T03:08:01.741Z,13.40
2023-05-11T03:10:29.670Z,12.17
2023-05-11T03:12:56.836Z,11.70
2023-05-11T03:15:24.496Z,16.50
2023-05-11T03:17:52.391Z,12.50
2023-05-11T03:20:22.349Z,13.73
2023-05-11T03:22:49.871Z,15.27
2023-05-11T03:25:17.743Z,14.70
2023-05-11T03:27:46.835Z,18.17
2023-05-11T03:30:15.932Z,17.53
2023-05-11T03:32:43.102Z,24.73
2023-05-11T03:35:10.533Z,20.17
2023-05-11T03:37:39.036Z,19.47
2023-05-11T03:40:08.220Z,20.85
2023-05-11T03:42:37.616Z,18.15
2023-05-11T03:45:07.886Z,16.03
2023-05-11T03:47:36.124Z,13.90
2023-05-11T03:50:04.425Z,18.92
2023-05-11T03:52:32.512Z,15.17
2023-05-11T03:54:59.785Z,16.40
2023-05-11T03:57:27.836Z,13.20
2023-05-11T03:59:54.983Z,16.38
2023-05-11T04:02:24.586Z,17.67
2023-05-11T04:04:54.818Z,18.97
2023-05-11T04:07:21.967Z,19.33
2023-05-11T04:09:49.083Z,19.63
2023-05-11T04:12:15.951Z,17.37
2023-05-11T04:14:43.263Z,16.27
2023-05-11T04:17:10.284Z,21.63
2023-05-11T04:19:37.374Z,26.03
2023-05-11T04:22:04.209Z,18.40
2023-05-11T04:24:31.344Z,16.17
2023-05-11T04:26:58.229Z,17.00
2023-05-11T04:29:25.666Z,18.57
2023-05-11T04:31:52.532Z,12.30
2023-05-11T04:34:19.734Z,12.33
2023-05-11T04:36:50.924Z,12.53
2023-05-11T04:39:18.158Z,11.43
2023-05-11T04:41:45.391Z,10.57
2023-05-11T04:44:12.727Z,17.10
2023-05-11T04:46:39.639Z,13.43
2023-05-11T04:49:07.092Z,12.77
2023-05-11T04:51:33.984Z,14.38
2023-05-11T04:54:01.134Z,13.45
2023-05-11T04:56:27.996Z,14.27
2023-05-11T04:58:55.148Z,13.50
2023-05-11T05:01:22.099Z,17.88
2023-05-11T05:03:49.906Z,9.68
2023-05-11T05:06:16.884Z,15.48
2023-05-11T05:08:44.014Z,16.67
2023-05-11T05:11:11.174Z,13.00
2023-05-11T05:13:38.340Z,13.85
2023-05-11T05:16:05.480Z,14.85
2023-05-11T05:18:32.909Z,10.13
2023-05-11T05:20:59.899Z,18.02
2023-05-11T05:23:27.029Z,11.60
2023-05-11T05:25:54.079Z,11.80
2023-05-11T05:28:21.225Z,11.45
2023-05-11T05:30:48.135Z,9.95
2023-05-11T05:33:15.334Z,9.82
2023-05-11T05:35:43.960Z,8.13
2023-05-11T05:38:11.304Z,6.72
2023-05-11T05:40:39.585Z,11.00
2023-05-11T05:43:06.944Z,9.80
2023-05-11T05:45:33.767Z,10.68
2023-05-11T05:48:01.104Z,7.28
2023-05-11T05:50:28.386Z,9.13
2023-05-11T05:52:55.821Z,10.82
2023-05-11T05:55:22.709Z,6.80
2023-05-11T05:57:50.235Z,13.98
2023-05-11T06:00:17.753Z,11.68
2023-05-11T06:02:45.139Z,5.35
2023-05-11T06:05:12.063Z,9.73
2023-05-11T06:07:39.259Z,11.98
2023-05-11T06:10:06.641Z,13.70
2023-05-11T06:12:33.936Z,6.32
2023-05-11T06:15:01.010Z,9.98
2023-05-11T06:17:28.680Z,8.35
2023-05-11T06:19:55.812Z,7.80
2023-05-11T06:22:23.007Z,8.52
2023-05-11T06:24:50.128Z,8.68
2023-05-11T06:27:18.383Z,8.23
2023-05-11T06:29:45.750Z,7.75
2023-05-11T06:32:12.896Z,8.70
2023-05-11T06:34:39.838Z,7.70
2023-05-11T06:37:07.488Z,9.52
2023-05-11T06:39:37.806Z,8.00
2023-05-11T06:42:06.807Z,11.45
2023-05-11T06:44:34.375Z,6.38
2023-05-11T06:47:01.593Z,9.20
2023-05-11T06:49:28.851Z,7.60
2023-05-11T06:51:55.989Z,9.68
2023-05-11T06:54:22.945Z,7.65
2023-05-11T06:56:50.134Z,9.38
2023-05-11T06:59:17.246Z,6.13
2023-05-11T07:01:44.775Z,10.13
2023-05-11T07:04:11.767Z,8.80
2023-05-11T07:06:38.983Z,5.95
2023-05-11T07:09:05.925Z,10.32
2023-05-11T07:11:33.055Z,9.70
2023-05-11T07:13:59.890Z,9.30
2023-05-11T07:16:27.241Z,7.35
2023-05-11T07:18:54.229Z,6.70
2023-05-11T07:21:24.537Z,9.70
2023-05-11T07:23:51.442Z,8.40
2023-05-11T07:26:18.601Z,9.80
2023-05-11T07:28:45.506Z,8.85
2023-05-11T07:31:12.753Z,7.95
2023-05-11T07:33:39.675Z,12.43
2023-05-11T07:36:07.566Z,10.88
2023-05-11T07:38:34.514Z,7.55
2023-05-11T07:41:01.788Z,7.28
2023-05-11T07:43:28.698Z,6.20
2023-05-11T07:45:55.953Z,8.77
2023-05-11T07:48:22.985Z,7.97
2023-05-11T07:50:50.172Z,6.47
2023-05-11T07:53:17.203Z,6.93
2023-05-11T07:55:44.461Z,9.18
2023-05-11T07:58:11.340Z,9.10
2023-05-11T08:00:38.550Z,5.90
2023-05-11T08:03:06.536Z,4.55
2023-05-11T08:05:37.484Z,6.85
2023-05-11T08:08:05.239Z,4.85
2023-05-11T08:10:32.481Z,5.13
2023-05-11T08:12:59.494Z,6.53
2023-05-11T08:15:27.042Z,6.05
2023-05-11T08:17:54.039Z,5.03
2023-05-11T08:20:21.303Z,8.18
2023-05-11T08:22:48.208Z,7.63
2023-05-11T08:25:15.478Z,6.22
2023-05-11T08:27:42.424Z,6.10
2023-05-11T08:30:11.784Z,4.18
2023-05-11T08:32:54.590Z,5.60
2023-05-11T08:35:24.800Z,5.85
2023-05-11T08:37:51.749Z,9.73
2023-05-11T08:40:21.755Z,5.43
2023-05-11T08:42:52.740Z,7.75
2023-05-11T08:45:21.300Z,5.20
2023-05-11T08:47:49.130Z,5.03
2023-05-11T08:50:16.541Z,4.47
2023-05-11T08:52:43.473Z,7.78
2023-05-11T08:55:11.169Z,4.45
2023-05-11T08:57:40.441Z,11.60
2023-05-11T09:00:08.638Z,3.78
2023-05-11T09:02:35.998Z,5.07
2023-05-11T09:05:04.474Z,7.05
2023-05-11T09:07:33.490Z,3.45
2023-05-11T09:10:01.518Z,7.30
2023-05-11T09:12:28.627Z,12.93
2023-05-11T09:15:01.864Z,5.28
2023-05-11T09:17:29.260Z,5.93
2023-05-11T09:20:01.595Z,4.97
2023-05-11T09:22:30.568Z,4.18
2023-05-11T09:25:01.893Z,4.57
2023-05-11T09:27:28.809Z,3.53
2023-05-11T09:29:56.017Z,5.82
2023-05-11T09:32:22.922Z,4.50
2023-05-11T09:34:50.380Z,2.95
2023-05-11T09:37:19.012Z,8.70
2023-05-11T09:42:33.027Z,4.72
2023-05-11T09:45:00.192Z,4.68
2023-05-11T09:47:27.687Z,3.35
2023-05-11T09:49:54.913Z,3.90
2023-05-11T09:52:21.796Z,4.45
2023-05-11T09:54:51.935Z,6.60
2023-05-11T09:57:29.931Z,3.85
2023-05-11T09:59:59.060Z,4.95
2023-05-11T10:02:28.236Z,7.05
2023-05-11T10:05:00.477Z,7.07
2023-05-11T10:07:30.231Z,5.13
2023-05-11T10:09:59.606Z,6.90
2023-05-11T10:12:27.481Z,6.80
2023-05-11T10:15:02.899Z,4.32
2023-05-11T10:17:33.232Z,5.13
2023-05-11T10:20:01.954Z,5.13
2023-05-11T10:22:30.260Z,5.35
2023-05-11T10:24:58.776Z,2.45
2023-05-11T10:27:27.145Z,5.18
2023-05-11T10:29:54.589Z,4.57
2023-05-11T10:32:22.694Z,6.57
2023-05-11T10:34:52.876Z,5.95
2023-05-11T10:37:21.444Z,4.28
2023-05-11T10:39:50.646Z,3.25
2023-05-11T10:45:25.532Z,2.60
2023-05-11T10:48:17.056Z,5.40
2023-05-11T10:51:18.068Z,6.82
2023-05-11T10:54:09.123Z,3.90
2023-05-11T10:57:07.197Z,5.10
2023-05-11T10:59:53.926Z,3.13
2023-05-11T11:02:21.821Z,2.85
2023-05-11T11:04:51.888Z,3.78
2023-05-11T11:07:20.181Z,3.00
2023-05-11T11:10:07.308Z,3.90
2023-05-11T11:12:35.255Z,4.32
2023-05-11T11:15:05.490Z,5.18
2023-05-11T11:17:35.196Z,3.88
2023-05-11T11:20:07.678Z,5.00
2023-05-11T11:22:34.979Z,3.70
2023-05-11T11:25:05.245Z,7.15
2023-05-11T11:27:41.974Z,2.83
2023-05-11T11:30:18.864Z,5.82
2023-05-11T11:32:48.398Z,3.58
2023-05-11T11:35:40.142Z,4.35
2023-05-11T11:38:14.653Z,5.28
2023-05-11T11:40:51.197Z,12.38
2023-05-11T11:43:27.044Z,5.32
2023-05-11T11:46:01.135Z,5.60
2023-05-11T11:48:42.476Z,4.40
2023-05-11T11:51:11.233Z,2.55
2023-05-11T11:53:38.589Z,4.20
2023-05-11T11:56:08.008Z,7.00
2023-05-11T11:58:41.419Z,13.65
2023-05-11T12:01:10.194Z,10.35
2023-05-11T12:06:08.121Z,9.20
2023-05-11T12:08:36.785Z,7.75
2023-05-11T12:11:04.730Z,6.38
2023-05-11T12:13:32.818Z,11.82
2023-05-11T12:16:15.808Z,5.28
2023-05-11T12:18:52.826Z,3.47
2023-05-11T12:21:23.856Z,2.85
2023-05-11T12:23:59.200Z,7.32
2023-05-11T12:26:27.391Z,3.72
2023-05-11T12:29:09.247Z,2.83
2023-05-11T12:31:40.954Z,4.18
2023-05-11T12:34:15.530Z,3.20
2023-05-11T12:36:43.327Z,3.17
2023-05-11T12:39:17.856Z,3.92
2023-05-11T12:41:45.272Z,4.68
2023-05-11T12:44:14.577Z,3.72
2023-05-11T12:46:41.895Z,7.18
2023-05-11T12:49:10.193Z,5.00
2023-05-11T12:51:42.805Z,2.85
2023-05-11T12:54:10.233Z,2.35
2023-05-11T12:56:48.139Z,4.88
2023-05-11T12:59:30.486Z,6.25
2023-05-11T13:02:20.622Z,5.18
2023-05-11T13:04:48.881Z,3.75
2023-05-11T13:07:25.022Z,5.00
2023-05-11T13:10:00.227Z,6.85
2023-05-11T13:12:30.247Z,3.78
2023-05-11T13:15:13.351Z,3.17
2023-05-11T13:17:42.366Z,7.30
2023-05-11T13:20:27.675Z,4.78
2023-05-11T13:23:15.520Z,6.35
2023-05-11T13:25:45.435Z,4.40
2023-05-11T13:28:14.517Z,4.53
2023-05-11T13:30:42.302Z,3.72
2023-05-11T13:33:09.616Z,3.30
2023-05-11T13:35:41.385Z,7.53
2023-05-11T13:38:09.049Z,6.80
2023-05-11T13:40:36.783Z,3.13
2023-05-11T13:43:03.861Z,7.72
2023-05-11T13:45:31.123Z,6.35
2023-05-11T13:47:58.102Z,5.43
2023-05-11T13:50:26.552Z,2.13
2023-05-11T13:52:54.110Z,4.97
2023-05-11T13:55:22.011Z,3.85
2023-05-11T13:57:49.329Z,8.07
2023-05-11T14:00:16.944Z,3.03
2023-05-11T14:02:44.978Z,4.88
2023-05-11T14:05:12.246Z,5.18
2023-05-11T14:07:47.867Z,6.07
2023-05-11T14:10:19.741Z,2.72
2023-05-11T14:12:46.834Z,6.85
2023-05-11T14:15:14.144Z,3.25
2023-05-11T14:17:43.153Z,4.10
2023-05-11T14:20:12.927Z,5.63
2023-05-11T14:22:41.684Z,6.30
2023-05-11T14:25:09.075Z,6.65
2023-05-11T14:27:36.357Z,2.83
2023-05-11T14:30:03.753Z,5.63
2023-05-11T14:32:30.742Z,6.68
2023-05-11T14:34:57.988Z,6.07
2023-05-11T14:37:24.909Z,2.88
2023-05-11T14:39:52.098Z,5.57
2023-05-11T14:42:19.179Z,4.90
2023-05-11T14:44:46.453Z,8.35
2023-05-11T14:47:13.360Z,4.72
2023-05-11T14:49:40.524Z,5.63
2023-05-11T14:52:07.352Z,6.60
2023-05-11T14:54:35.167Z,4.70
2023-05-11T14:57:02.041Z,2.58
2023-05-11T14:59:29.239Z,3.42
2023-05-11T15:01:56.117Z,7.22
2023-05-11T15:04:23.356Z,7.65
2023-05-11T15:06:50.467Z,6.18
2023-05-11T15:09:17.644Z,5.35
2023-05-11T15:11:44.523Z,5.15
2023-05-11T15:14:11.907Z,8.20
2023-05-11T15:16:38.889Z,5.13
2023-05-11T15:19:06.508Z,5.70
2023-05-11T15:21:33.555Z,8.82
2023-05-11T15:24:00.945Z,5.63
2023-05-11T15:26:27.848Z,9.40
2023-05-11T15:28:55.066Z,5.07
2023-05-11T15:31:22.603Z,4.72
2023-05-11T15:33:50.017Z,3.72
2023-05-11T15:36:16.987Z,4.28
2023-05-11T15:38:44.156Z,5.13
2023-05-11T15:41:11.021Z,3.20
2023-05-11T15:43:38.148Z,3.75
2023-05-11T15:46:05.806Z,7.07
2023-05-11T15:48:33.360Z,9.57
2023-05-11T15:51:01.337Z,2.75
2023-05-11T15:53:28.884Z,3.37
2023-05-11T15:55:56.900Z,5.28
2023-05-11T15:58:24.300Z,6.03
2023-05-11T16:00:51.411Z,4.88
2023-05-11T16:03:20.021Z,6.38
2023-05-11T16:05:47.441Z,6.93
2023-05-11T16:08:14.730Z,7.13
2023-05-11T16:10:41.665Z,6.30
2023-05-11T16:13:09.815Z,5.88
2023-05-11T16:15:36.854Z,2.75
2023-05-11T16:18:05.293Z,6.00
2023-05-11T16:20:32.496Z,7.43
2023-05-11T16:22:59.817Z,5.15
2023-05-11T16:25:26.908Z,5.93
2023-05-11T16:27:54.075Z,7.82
2023-05-11T16:30:24.157Z,7.50
2023-05-11T16:32:52.014Z,55.72
2023-05-11T16:35:19.324Z,6.25
2023-05-11T16:37:48.006Z,10.70
2023-05-11T16:40:19.198Z,7.32
2023-05-11T16:42:47.608Z,7.43
2023-05-11T16:45:16.571Z,13.67
2023-05-11T16:47:45.571Z,8.32
2023-05-11T16:52:43.677Z,9.70
2023-05-11T16:55:11.929Z,9.13
2023-05-11T16:57:38.836Z,8.45
2023-05-11T17:00:07.022Z,7.82
2023-05-11T17:02:34.088Z,7.70
2023-05-11T17:05:02.075Z,8.60
2023-05-11T17:07:28.958Z,8.13
2023-05-11T17:09:57.321Z,9.95
2023-05-11T17:12:24.408Z,5.53
2023-05-11T17:14:51.705Z,12.07
2023-05-11T17:17:18.557Z,8.25
2023-05-11T17:19:45.692Z,9.23
2023-05-11T17:34:28.021Z,5.88
2023-05-11T17:36:56.026Z,8.27
2023-05-11T17:39:23.179Z,10.85
2023-05-11T17:41:50.189Z,19.98
2023-05-11T17:44:17.437Z,13.43
2023-05-11T17:46:44.390Z,11.73
2023-05-11T17:49:11.669Z,12.95
2023-05-11T17:51:38.609Z,18.27
2023-05-11T17:54:05.833Z,14.45
2023-05-11T17:56:32.897Z,14.27
2023-05-11T17:59:00.130Z,14.40
2023-05-11T18:01:27.764Z,15.27
2023-05-11T18:03:55.192Z,12.13
2023-05-11T18:06:22.199Z,18.65
2023-05-11T18:08:49.460Z,10.93
2023-05-11T18:11:16.475Z,9.13
2023-05-11T18:13:43.644Z,9.93
2023-05-11T18:16:10.460Z,10.27
2023-05-11T18:18:37.901Z,31.95
2023-05-11T18:21:06.264Z,15.50
2023-05-11T18:23:33.812Z,43.25
2023-05-11T18:26:00.823Z,30.25
2023-05-11T18:28:28.308Z,48.42
2023-05-11T18:30:55.618Z,33.67
2023-05-11T18:33:23.127Z,46.15
2023-05-11T18:35:53.270Z,23.95
2023-05-11T18:38:20.537Z,29.52
2023-05-11T18:40:47.819Z,23.02
2023-05-11T18:43:15.062Z,29.05
2023-05-11T18:45:43.147Z,16.52
2023-05-11T18:48:10.350Z,22.65
2023-05-11T18:50:37.323Z,21.90
2023-05-11T18:53:04.499Z,28.38
2023-05-11T18:55:38.136Z,25.70
2023-05-11T18:58:12.835Z,23.20
2023-05-11T19:00:40.594Z,14.25
2023-05-11T19:03:08.259Z,16.48
2023-05-11T19:05:35.137Z,22.13
2023-05-11T19:08:02.311Z,16.55
2023-05-11T19:10:29.172Z,13.98
2023-05-11T19:12:56.451Z,12.00
2023-05-11T19:15:23.276Z,15.90
2023-05-11T19:17:50.534Z,12.27
2023-05-11T19:20:17.858Z,18.77
2023-05-11T19:22:45.117Z,10.82
2023-05-11T19:25:12.017Z,19.13
2023-05-11T19:27:39.862Z,17.80
2023-05-11T19:30:09.508Z,12.23
2023-05-11T19:32:36.838Z,14.85
2023-05-11T19:35:04.631Z,15.88
2023-05-11T19:37:31.948Z,15.20
2023-05-11T19:40:11.492Z,19.00
2023-05-11T19:42:46.121Z,18.50
2023-05-11T19:45:15.002Z,14.57
2023-05-11T19:47:42.171Z,12.75
2023-05-11T19:50:09.347Z,10.80
2023-05-11T19:52:36.807Z,7.40
2023-05-11T19:55:04.404Z,13.55
2023-05-11T19:57:37.141Z,8.60
2023-05-11T20:00:06.310Z,9.02
2023-05-11T20:05:00.703Z,10.13
2023-05-11T20:07:28.016Z,9.85
2023-05-11T20:09:55.122Z,8.95
2023-05-11T20:12:22.370Z,11.57
2023-05-11T20:14:49.462Z,7.53
2023-05-11T20:17:16.625Z,10.27
2023-05-11T20:19:43.458Z,7.63
2023-05-11T20:22:10.663Z,7.85
2023-05-11T20:24:37.625Z,8.45
2023-05-11T20:27:09.544Z,10.20
2023-05-11T20:29:38.891Z,12.40
2023-05-11T20:32:06.856Z,9.80
2023-05-11T20:34:33.876Z,10.65
2023-05-11T20:37:01.130Z,10.57
2023-05-11T20:39:28.427Z,15.50
2023-05-11T20:41:58.849Z,21.33
2023-05-11T20:44:26.294Z,21.10
2023-05-11T20:46:53.485Z,19.13
2023-05-11T20:49:37.580Z,13.32
2023-05-11T20:52:06.781Z,15.52
2023-05-11T20:54:36.780Z,16.45
2023-05-11T20:57:04.494Z,14.38
2023-05-11T21:02:02.594Z,28.50
2023-05-11T21:04:31.331Z,19.60
2023-05-11T21:06:58.560Z,20.70
2023-05-11T21:09:25.630Z,25.55
2023-05-11T21:11:52.887Z,21.45
2023-05-11T21:14:20.346Z,19.15
2023-05-11T21:16:48.000Z,16.08
2023-05-11T21:19:18.584Z,14.88
2023-05-11T21:21:48.615Z,11.77
2023-05-11T21:24:16.263Z,17.05
2023-05-11T21:26:43.949Z,15.50
2023-05-11T21:29:13.158Z,14.98
2023-05-11T21:31:40.355Z,20.77
2023-05-11T21:34:07.179Z,16.15
2023-05-11T21:36:34.401Z,17.70
2023-05-11T21:39:01.329Z,13.85
2023-05-11T21:41:28.487Z,15.55
2023-05-11T21:43:55.383Z,12.02
2023-05-11T21:46:22.623Z,9.98
2023-05-11T21:48:49.495Z,12.57
2023-05-11T21:51:16.685Z,10.23
2023-05-11T21:53:43.513Z,16.60
2023-05-11T21:56:10.668Z,8.88
2023-05-11T21:58:37.877Z,11.43
2023-05-11T22:01:05.030Z,11.30
2023-05-11T22:03:32.290Z,10.07
2023-05-11T22:05:59.564Z,8.80
2023-05-11T22:08:26.585Z,11.55
2023-05-11T22:10:53.828Z,10.77
2023-05-11T22:13:21.709Z,10.82
2023-05-11T22:15:48.853Z,15.38
2023-05-11T22:18:15.834Z,13.93
2023-05-11T22:20:43.358Z,13.35
2023-05-11T22:23:10.189Z,14.93
2023-05-11T22:25:37.290Z,11.33
2023-05-11T22:28:04.970Z,10.50
2023-05-11T22:30:32.169Z,11.90
2023-05-11T22:32:59.119Z,12.27
2023-05-11T22:35:26.625Z,12.73
2023-05-11T22:37:54.303Z,12.77
2023-05-11T22:40:21.588Z,14.60
2023-05-11T22:42:48.534Z,10.67
2023-05-11T22:45:16.511Z,12.77
2023-05-11T22:47:43.566Z,16.02
2023-05-11T22:50:12.220Z,12.32
2023-05-11T22:52:39.507Z,9.47
2023-05-11T22:55:07.200Z,8.73
2023-05-11T22:57:34.138Z,10.35
2023-05-11T23:00:01.294Z,12.63
2023-05-11T23:02:29.805Z,11.45
2023-05-11T23:04:57.735Z,10.20
2023-05-11T23:07:24.571Z,12.77
2023-05-11T23:09:52.972Z,8.98
2023-05-11T23:12:20.043Z,12.35
2023-05-11T23:14:47.456Z,7.37
2023-05-11T23:19:41.858Z,8.00
2023-05-11T23:22:08.866Z,11.03
2023-05-11T23:24:36.198Z,7.53
2023-05-11T23:27:03.509Z,10.37
2023-05-11T23:29:30.721Z,10.20
2023-05-11T23:31:57.594Z,9.90
2023-05-11T23:34:24.726Z,9.07
2023-05-11T23:36:51.745Z,9.30
2023-05-11T23:39:19.226Z,10.00
2023-05-11T23:42:01.610Z,9.20
2023-05-11T23:44:28.807Z,8.30
2023-05-11T23:46:55.737Z,11.00
2023-05-11T23:49:23.016Z,9.07
2023-05-11T23:51:49.937Z,7.97
2023-05-11T23:54:17.118Z,7.85
2023-05-11T23:56:44.694Z,11.00
2023-05-11T23:59:11.832Z,9.60
